createdAt,value
2023-01-15T14:21:22.228Z,98210.19
2023-01-15T14:29:01.444Z,98220.22
2023-01-15T14:33:32.967Z,98236.47
2023-01-15T14:36:11.021Z,98237.66
2023-01-15T14:38:45.287Z,98234.31
2023-01-15T14:41:13.568Z,98238.94
2023-01-15T14:43:48.596Z,98238.06
2023-01-15T14:46:25.844Z,98242.28
2023-01-15T14:48:58.390Z,98225.31
2023-01-15T14:51:34.183Z,98225.03
2023-01-15T14:54:11.267Z,98234.53
2023-01-15T14:56:44.456Z,98230.34
2023-01-15T14:59:33.606Z,98228.94
2023-01-15T15:02:22.929Z,98225.59
2023-01-15T15:04:56.091Z,98230.19
2023-01-15T15:07:41.595Z,98234.03
2023-01-15T15:10:37.742Z,98249.94
2023-01-15T15:13:18.763Z,98231.63
2023-01-15T15:16:08.777Z,98223.81
2023-01-15T15:18:44.004Z,98228.28
2023-01-15T15:21:24.746Z,98232.09
2023-01-15T15:24:11.923Z,98230.22
2023-01-15T15:26:40.339Z,98225.66
2023-01-15T15:29:09.745Z,98227.66
2023-01-15T15:31:40.654Z,98224.00
2023-01-15T15:34:16.855Z,98220.13
2023-01-15T15:36:45.601Z,98220.06
2023-01-15T15:39:20.197Z,98217.38
2023-01-15T15:42:13.161Z,98218.53
2023-01-15T15:45:50.939Z,98208.66
2023-01-15T15:48:42.801Z,98210.94
2023-01-15T15:51:27.399Z,98207.75
2023-01-15T15:54:11.748Z,98205.94
2023-01-15T15:56:43.578Z,98201.91
2023-01-15T15:59:18.956Z,98202.69
2023-01-15T16:01:45.774Z,98198.75
2023-01-15T16:04:18.310Z,98207.09
2023-01-15T16:06:46.842Z,98212.06
2023-01-15T16:09:13.638Z,98201.13
2023-01-15T16:11:44.291Z,98185.66
2023-01-15T16:14:15.785Z,98193.84
2023-01-15T16:16:44.204Z,98189.88
2023-01-15T16:19:18.754Z,98174.13
2023-01-15T16:21:46.319Z,98169.47
2023-01-15T16:24:27.807Z,98164.28
2023-01-15T16:27:07.860Z,98172.44
2023-01-15T16:29:36.052Z,98165.59
2023-01-15T16:32:12.158Z,98166.59
2023-01-15T16:34:39.285Z,98156.63
2023-01-15T16:37:23.182Z,98168.84
2023-01-15T16:39:50.172Z,98149.13
2023-01-15T16:42:30.216Z,98138.81
2023-01-15T16:45:03.945Z,98155.28
2023-01-15T16:47:33.906Z,98157.41
2023-01-15T16:50:22.061Z,98150.50
2023-01-15T16:52:50.284Z,98162.25
2023-01-15T16:55:38.859Z,98148.81
2023-01-15T16:58:36.643Z,98153.28
2023-01-15T17:01:25.444Z,98147.16
2023-01-15T17:03:52.715Z,98177.22
2023-01-15T17:06:24.972Z,98157.16
2023-01-15T17:08:53.020Z,98138.56
2023-01-15T17:11:22.623Z,98146.47
2023-01-15T17:13:49.607Z,98142.94
2023-01-15T17:16:16.542Z,98139.66
2023-01-15T17:18:43.551Z,98143.31
2023-01-15T17:21:15.937Z,98138.63
2023-01-15T17:23:43.098Z,98127.97
2023-01-15T17:26:19.599Z,98133.59
2023-01-15T17:28:47.055Z,98135.59
2023-01-15T17:31:24.921Z,98142.34
2023-01-15T17:33:52.489Z,98166.94
2023-01-15T17:36:20.467Z,98148.94
2023-01-15T17:38:47.774Z,98131.78
2023-01-15T17:41:16.079Z,98127.13
2023-01-15T17:43:43.151Z,98128.97
2023-01-15T17:46:09.976Z,98125.09
2023-01-15T17:48:36.703Z,98131.25
2023-01-15T17:51:03.656Z,98140.91
2023-01-15T17:53:32.265Z,98150.91
2023-01-15T17:56:17.637Z,98128.28
2023-01-15T17:59:02.801Z,98135.88
2023-01-15T18:01:52.738Z,98126.44
2023-01-15T18:04:44.223Z,98122.22
2023-01-15T18:07:12.040Z,98135.16
2023-01-15T18:09:40.108Z,98135.16
2023-01-15T18:12:06.966Z,98135.44
2023-01-15T18:14:33.446Z,98131.81
2023-01-15T18:17:00.012Z,98139.00
2023-01-15T18:19:26.442Z,98141.44
2023-01-15T18:21:52.909Z,98124.81
2023-01-15T18:24:21.991Z,98145.53
2023-01-15T18:26:52.985Z,98143.13
2023-01-15T18:29:20.558Z,98124.53
2023-01-15T18:31:47.643Z,98121.13
2023-01-15T18:34:14.586Z,98117.78
2023-01-15T18:36:41.314Z,98117.09
2023-01-15T18:39:12.406Z,98126.81
2023-01-15T18:41:40.378Z,98118.91
2023-01-15T18:44:30.386Z,98108.03
2023-01-15T18:46:59.728Z,98113.97
2023-01-15T18:49:26.880Z,98103.25
2023-01-15T18:52:12.545Z,98109.81
2023-01-15T18:54:39.378Z,98102.81
2023-01-15T18:57:06.038Z,98097.81
2023-01-15T18:59:33.104Z,98087.19
2023-01-15T19:02:00.245Z,98093.19
2023-01-15T19:04:27.772Z,98094.53
2023-01-15T19:06:55.055Z,98092.72
2023-01-15T19:09:24.259Z,98076.47
2023-01-15T19:11:52.319Z,98078.44
2023-01-15T19:14:38.702Z,98080.09
2023-01-15T19:17:24.827Z,98069.41
2023-01-15T19:19:51.457Z,98075.47
2023-01-15T19:22:36.582Z,98086.50
2023-01-15T19:25:03.680Z,98070.63
2023-01-15T19:27:30.904Z,98074.94
2023-01-15T19:30:00.239Z,98066.97
2023-01-15T19:32:27.007Z,98062.34
2023-01-15T19:34:53.865Z,98057.69
2023-01-15T19:37:20.869Z,98053.19
2023-01-15T19:39:47.403Z,98048.69
2023-01-15T19:42:32.671Z,98043.91
2023-01-15T19:45:17.505Z,98042.38
2023-01-15T19:48:03.787Z,98042.06
2023-01-15T19:50:38.151Z,98031.75
2023-01-15T19:53:05.852Z,98022.78
2023-01-15T19:55:34.088Z,98020.59
2023-01-15T19:58:05.120Z,98013.78
2023-01-15T20:00:36.761Z,98004.75
2023-01-15T20:03:05.521Z,98000.28
2023-01-15T20:05:32.944Z,97979.03
2023-01-15T20:07:59.806Z,97988.22
2023-01-15T20:10:28.801Z,97984.91
2023-01-15T20:13:15.023Z,97975.44
2023-01-15T20:15:46.287Z,97980.84
2023-01-15T20:18:14.095Z,97963.34
2023-01-15T20:20:44.409Z,97968.03
2023-01-15T20:23:11.700Z,97976.66
2023-01-15T20:25:40.074Z,97952.41
2023-01-15T20:28:07.866Z,97956.72
2023-01-15T20:30:36.865Z,97948.75
2023-01-15T20:33:04.402Z,97945.41
2023-01-15T20:35:31.931Z,97934.13
2023-01-15T20:37:59.835Z,97931.66
2023-01-15T20:40:28.674Z,97915.72
2023-01-15T20:43:15.294Z,97923.84
2023-01-15T20:45:44.891Z,97915.50
2023-01-15T20:48:12.285Z,97899.56
2023-01-15T20:51:02.035Z,97888.28
2023-01-15T20:53:33.984Z,97888.94
2023-01-15T20:56:10.928Z,97887.28
2023-01-15T20:58:37.681Z,97886.28
2023-01-15T21:01:06.681Z,97878.31
2023-01-15T21:03:34.306Z,97876.81
2023-01-15T21:06:04.587Z,97865.34
2023-01-15T21:08:33.475Z,97875.97
2023-01-15T21:11:00.839Z,97874.66
2023-01-15T21:13:28.208Z,97848.69
2023-01-15T21:15:56.838Z,97843.38
2023-01-15T21:18:25.009Z,97843.38
2023-01-15T21:20:51.746Z,97835.56
2023-01-15T21:23:18.430Z,97830.06
2023-01-15T21:25:44.967Z,97833.41
2023-01-15T21:28:11.670Z,97835.72
2023-01-15T21:30:39.711Z,97837.38
2023-01-15T21:33:08.743Z,97838.72
2023-01-15T21:35:39.339Z,97816.41
2023-01-15T21:38:07.006Z,97833.72
2023-01-15T21:40:33.983Z,97825.72
2023-01-15T21:43:19.752Z,97815.75
2023-01-15T21:45:46.544Z,97802.13
2023-01-15T21:48:14.299Z,97807.09
2023-01-15T21:50:40.777Z,97800.13
2023-01-15T21:53:07.320Z,97789.47
2023-01-15T21:55:35.111Z,97795.28
2023-01-15T21:58:03.878Z,97800.13
2023-01-15T22:00:30.625Z,97787.97
2023-01-15T22:02:58.376Z,97785.50
2023-01-15T22:05:25.074Z,97778.31
2023-01-15T22:07:51.854Z,97774.16
2023-01-15T22:10:18.504Z,97767.00
2023-01-15T22:12:45.372Z,97748.03
2023-01-15T22:15:12.155Z,97749.88
2023-01-15T22:17:38.921Z,97745.91
2023-01-15T22:20:07.073Z,97734.25
2023-01-15T22:22:36.361Z,97737.25
2023-01-15T22:25:05.207Z,97751.06
2023-01-15T22:27:34.531Z,97738.59
2023-01-15T22:30:01.298Z,97732.59
2023-01-15T22:32:27.661Z,97730.41
2023-01-15T22:34:54.191Z,97722.31
2023-01-15T22:37:20.582Z,97729.31
2023-01-15T22:39:47.542Z,97723.63
2023-01-15T22:42:27.639Z,97717.63
2023-01-15T22:44:56.799Z,97707.31
2023-01-15T22:47:23.355Z,97703.34
2023-01-15T22:49:49.702Z,97682.72
2023-01-15T22:52:16.580Z,97697.22
2023-01-15T22:54:44.881Z,97689.03
2023-01-15T22:57:12.944Z,97681.75
2023-01-15T22:59:39.513Z,97683.91
2023-01-15T23:02:06.392Z,97676.09
2023-01-15T23:04:33.077Z,97666.44
2023-01-15T23:06:59.612Z,97692.72
2023-01-15T23:09:26.311Z,97663.63
2023-01-15T23:11:52.853Z,97653.13
2023-01-15T23:14:20.141Z,97643.81
2023-01-15T23:16:46.947Z,97651.97
2023-01-15T23:19:14.373Z,97648.66
2023-01-15T23:21:41.355Z,97643.66
2023-01-15T23:24:08.560Z,97636.50
2023-01-15T23:26:35.964Z,97621.22
2023-01-15T23:29:03.487Z,97621.56
2023-01-15T23:31:30.011Z,97621.22
2023-01-15T23:33:56.451Z,97613.56
2023-01-15T23:36:23.652Z,97609.91
2023-01-15T23:38:50.121Z,97615.25
2023-01-15T23:41:19.104Z,97601.78
2023-01-15T23:44:04.325Z,97597.94
2023-01-15T23:46:37.716Z,97597.63
2023-01-15T23:49:10.205Z,97594.13
2023-01-15T23:51:37.600Z,97586.31
2023-01-15T23:54:05.640Z,97576.88
2023-01-15T23:56:32.902Z,97580.69
2023-01-15T23:58:59.485Z,97583.34
